Admire, Kansas
Current Conditions -  °F | °C
As of 12:53 PM on Saturday 25 Oct 2014 (Local Time) from KEMP Reporting Station
Clear Clear  
Wind Chill: 79°   Ceiling: Unl
Heat Index: 81°   Visibility: 10mi
Dew Point: 64°   Wind: 6mph
Humidity: 60%   Direction: 150°SSE
Pressure: 30.05"   Gusts: NA
Location:  38.64°N, 96.1°W
Report Text: KEMP 251753Z AUTO 15005KT 10SM CLR 26/18 A3005 RMK AO2 SLP170 T02610178 10261 20117 58010
Loading
Personal Weather Stations






























Interactive Weather Map
Tropical Storm Tracking
New forecast layout! Learn more

10-Day Weather Forecast

Advertisements
Track Severe Weather on mobile